createdAt,value
2019-03-04T00:05:36.308Z,9.9
2019-03-04T00:15:39.783Z,9.7
2019-03-04T00:25:43.190Z,9.6
2019-03-04T00:35:46.621Z,9.5
2019-03-04T00:45:50.060Z,9.3
2019-03-04T00:55:53.509Z,9.3
2019-03-04T01:05:56.964Z,9.2
2019-03-04T01:16:00.421Z,9.1
2019-03-04T01:26:03.866Z,9
2019-03-04T01:36:07.307Z,8.9
2019-03-04T01:46:10.717Z,8.9
2019-03-04T01:56:14.152Z,8.8
2019-03-04T02:06:17.633Z,8.6
2019-03-04T02:16:21.043Z,8.6
2019-03-04T02:26:24.458Z,8.5
2019-03-04T02:36:27.931Z,8.5
2019-03-04T02:46:31.362Z,8.4
2019-03-04T02:56:35.855Z,8.4
2019-03-04T03:06:39.350Z,8.3
2019-03-04T03:16:42.792Z,8.4
2019-03-04T03:26:46.237Z,8.3
2019-03-04T03:36:49.731Z,8.4
2019-03-04T03:46:53.185Z,8.3
2019-03-04T03:56:56.621Z,8.4
2019-03-04T04:07:00.044Z,8.4
2019-03-04T04:17:03.510Z,8.4
2019-03-04T04:27:06.949Z,8.3
2019-03-04T04:37:10.396Z,8.4
2019-03-04T04:47:13.867Z,8.3
2019-03-04T04:57:17.293Z,8.3
2019-03-04T05:07:20.717Z,8.3
2019-03-04T05:17:24.251Z,8.1
2019-03-04T05:27:27.713Z,8.2
2019-03-04T05:37:31.168Z,8.1
2019-03-04T05:47:34.647Z,8.1
2019-03-04T05:57:38.075Z,8.1
2019-03-04T06:07:41.539Z,8.1
2019-03-04T06:17:44.998Z,8.1
2019-03-04T06:27:48.395Z,8.1
2019-03-04T06:37:51.803Z,8.2
2019-03-04T06:47:55.230Z,8.4
2019-03-04T06:57:58.658Z,8.9
2019-03-04T07:08:02.114Z,9.2
2019-03-04T07:18:05.539Z,9
2019-03-04T07:28:08.986Z,8.9
2019-03-04T07:38:12.411Z,9
2019-03-04T07:48:15.853Z,9.1
2019-03-04T07:58:20.259Z,8.9
2019-03-04T08:08:23.697Z,8.8
2019-03-04T08:18:27.196Z,9.5
2019-03-04T08:28:30.634Z,10.3
2019-03-04T08:38:34.084Z,10.5
2019-03-04T08:48:37.532Z,10.7
2019-03-04T08:58:41.285Z,10.8
2019-03-04T09:08:44.730Z,10.7
2019-03-04T09:18:48.178Z,10.3
2019-03-04T09:28:51.620Z,9.7
2019-03-04T09:38:55.061Z,9
2019-03-04T09:48:58.529Z,8.6
2019-03-04T09:59:01.975Z,8.2
2019-03-04T10:09:05.429Z,7.7
2019-03-04T10:19:08.859Z,7.5
2019-03-04T10:29:12.298Z,7.3
2019-03-04T10:39:17.771Z,7.1
2019-03-04T10:49:26.069Z,7.2
2019-03-04T10:59:29.514Z,7.5
2019-03-04T11:09:32.934Z,7.8
2019-03-04T11:19:36.361Z,8
2019-03-04T11:29:40.007Z,8.1
2019-03-04T11:39:43.450Z,8.4
2019-03-04T11:49:46.854Z,8.5
2019-03-04T11:59:50.282Z,8.3
2019-03-04T12:09:53.738Z,8.5
2019-03-04T12:19:57.154Z,8.3
2019-03-04T12:30:00.885Z,8.4
2019-03-04T12:40:04.526Z,8.6
2019-03-04T12:50:07.985Z,8.5
2019-03-04T13:00:11.456Z,8.7
2019-03-04T13:10:14.873Z,8.8
2019-03-04T13:20:18.342Z,8.8
2019-03-04T13:30:21.777Z,8.9
2019-03-04T13:40:25.192Z,9.1
2019-03-04T13:50:28.649Z,9.1
2019-03-04T14:00:32.108Z,9.2
2019-03-04T14:10:35.808Z,9.5
2019-03-04T14:20:39.220Z,10
2019-03-04T14:30:42.683Z,10.1
2019-03-04T14:40:46.135Z,10.1
2019-03-04T14:50:49.527Z,9.9
2019-03-04T15:00:52.926Z,9.8
2019-03-04T15:10:56.381Z,9.7
2019-03-04T15:21:00.111Z,9.9
2019-03-04T15:31:03.560Z,10
2019-03-04T15:41:06.991Z,9.7
2019-03-04T15:51:10.407Z,9.4
2019-03-04T16:01:13.853Z,9.4
2019-03-04T16:11:17.306Z,9.3
2019-03-04T16:21:20.727Z,9.1
2019-03-04T16:31:24.175Z,8.9
2019-03-04T16:41:27.597Z,8.7
2019-03-04T16:51:31.026Z,8.6
2019-03-04T17:01:34.470Z,8.5
2019-03-04T17:11:37.946Z,8.5
2019-03-04T17:21:41.400Z,8.5
2019-03-04T17:31:44.812Z,8.7
2019-03-04T17:41:48.274Z,8.5
2019-03-04T17:51:51.734Z,8.5
2019-03-04T18:01:55.179Z,8.5
2019-03-04T18:11:58.626Z,8.4
2019-03-04T18:22:02.041Z,8.1
2019-03-04T18:32:05.505Z,7.8
2019-03-04T18:42:08.957Z,7.9
2019-03-04T18:52:12.359Z,8.2
2019-03-04T19:02:15.774Z,8.1
2019-03-04T19:12:19.204Z,8.3
2019-03-04T19:22:23.654Z,8
2019-03-04T19:32:27.070Z,7.9
2019-03-04T19:42:30.504Z,8
2019-03-04T19:52:33.914Z,8
2019-03-04T20:02:37.324Z,8
2019-03-04T20:12:40.737Z,8
2019-03-04T20:22:44.375Z,8.2
2019-03-04T20:32:47.826Z,8.4
2019-03-04T20:42:51.273Z,8
2019-03-04T20:52:54.716Z,7.1
2019-03-04T21:02:58.156Z,6.8
2019-03-04T21:13:01.647Z,7.3
2019-03-04T21:23:05.075Z,7.4
2019-03-04T21:33:08.521Z,7.5
2019-03-04T21:43:11.998Z,7.6
2019-03-04T21:53:15.482Z,7.7
2019-03-04T22:03:18.908Z,7.5
2019-03-04T22:13:22.380Z,6.9
2019-03-04T22:23:25.898Z,7.2
2019-03-04T22:33:29.359Z,6.9
2019-03-04T22:43:33.847Z,7.1
2019-03-04T22:53:37.331Z,7.3
2019-03-04T23:03:40.826Z,7.6
2019-03-04T23:13:44.246Z,7.6
2019-03-04T23:23:47.702Z,7.5
2019-03-04T23:33:51.126Z,7.3
2019-03-04T23:43:54.566Z,7.3
2019-03-04T23:53:58.026Z,7.3
